Time;durP1;ratioP1;P1;durP2;ratioP2;P2;SDS_P1;SDS_P2;PMS_P1;PMS_P2;Temp;Humidity;BMP_temperature;BMP_pressure;BME280_temperature;BME280_humidity;BME280_pressure;Samples;Min_cycle;Max_cycle;Signal;HPM_P1;HPM_P2
2023/05/20 00:02:15;;;;;;;;;13.00;13.00;;;;;10.49;100.00;99300.25;4819181;29;104020;-72
2023/05/20 00:04:47;;;;;;;;;14.50;12.50;;;;;10.51;100.00;99290.13;4821380;29;102428;-71
2023/05/20 00:07:26;;;;;;;;;20.00;19.00;;;;;10.46;100.00;99286.28;4819579;28;102219;-70
2023/05/20 00:10:13;;;;;;;;;29.75;26.25;;;;;10.33;100.00;99286.91;4818724;29;102479;-71
2023/05/20 00:12:58;;;;;;;;;25.25;21.75;;;;;10.35;100.00;99287.56;4820519;28;107672;-71
2023/05/20 00:15:37;;;;;;;;;16.75;13.00;;;;;10.40;100.00;99281.63;4823421;28;102025;-71
2023/05/20 00:18:05;;;;;;;;;19.75;15.75;;;;;10.38;100.00;99281.78;4817924;28;102408;-71
2023/05/20 00:20:32;;;;;;;;;21.50;19.00;;;;;10.35;100.00;99276.75;4822844;29;102561;-71
2023/05/20 00:22:59;;;;;;;;;21.50;18.00;;;;;10.26;100.00;99264.34;4818842;29;104069;-71
2023/05/20 00:25:26;;;;;;;;;23.50;18.75;;;;;10.37;100.00;99277.41;4817180;29;102539;-71
2023/05/20 00:27:53;;;;;;;;;20.75;18.25;;;;;10.37;100.00;99282.81;4822435;28;102244;-71
2023/05/20 00:30:20;;;;;;;;;13.25;12.25;;;;;10.45;100.00;99279.19;4822743;28;102214;-71
2023/05/20 00:32:47;;;;;;;;;21.50;20.50;;;;;10.39;100.00;99285.34;4819254;28;104258;-71
2023/05/20 00:35:14;;;;;;;;;24.75;21.75;;;;;10.38;100.00;99286.34;4820536;28;102135;-71
2023/05/20 00:37:42;;;;;;;;;18.75;14.00;;;;;10.42;100.00;99298.47;4817894;28;102307;-71
2023/05/20 00:40:09;;;;;;;;;20.25;14.75;;;;;10.36;100.00;99285.72;4819470;28;102314;-71
2023/05/20 00:42:38;;;;;;;;;17.75;15.00;;;;;10.38;100.00;99289.91;4817294;28;103999;-71
2023/05/20 00:45:06;;;;;;;;;22.75;17.00;;;;;10.30;100.00;99279.16;4818452;28;102098;-70
2023/05/20 00:47:35;;;;;;;;;16.25;14.50;;;;;10.37;100.00;99274.69;4816630;28;102213;-71
2023/05/20 00:50:03;;;;;;;;;23.00;21.00;;;;;10.27;100.00;99276.81;4818411;28;102434;-71
2023/05/20 00:52:31;;;;;;;;;25.00;21.00;;;;;10.24;100.00;99263.69;4816277;28;104004;-71
2023/05/20 00:54:59;;;;;;;;;19.25;17.25;;;;;10.28;100.00;99268.53;4811740;28;103134;-71
2023/05/20 00:57:26;;;;;;;;;24.75;16.50;;;;;10.27;100.00;99268.72;4810563;28;102302;-71
2023/05/20 00:59:53;;;;;;;;;18.50;16.00;;;;;10.28;100.00;99273.09;4819515;28;102162;-71
2023/05/20 01:02:20;;;;;;;;;29.50;26.00;;;;;10.23;100.00;99270.09;4811865;28;104962;-70
2023/05/20 01:04:48;;;;;;;;;18.25;14.75;;;;;10.28;100.00;99265.84;4818883;29;102971;-71
2023/05/20 01:07:26;;;;;;;;;15.00;13.50;;;;;10.23;100.00;99267.38;4812130;28;102333;-71
2023/05/20 01:10:11;;;;;;;;;25.50;20.75;;;;;10.17;100.00;99257.34;4817984;28;102490;-71
2023/05/20 01:13:05;;;;;;;;;28.25;23.00;;;;;10.14;100.00;99268.44;4816948;28;108715;-71
2023/05/20 01:15:48;;;;;;;;;15.50;9.25;;;;;10.20;100.00;99265.91;4810584;28;102651;-70
2023/05/20 01:18:42;;;;;;;;;22.50;19.00;;;;;10.19;100.00;99268.78;4809367;28;102262;-71
2023/05/20 01:21:23;;;;;;;;;27.75;25.00;;;;;10.11;100.00;99263.41;4816064;28;102046;-71
2023/05/20 01:23:50;;;;;;;;;20.50;18.00;;;;;10.17;100.00;99270.84;4812893;28;103666;-71
2023/05/20 01:26:18;;;;;;;;;24.50;21.00;;;;;10.14;100.00;99268.44;4821966;29;102416;-71
2023/05/20 01:28:45;;;;;;;;;27.50;25.50;;;;;10.16;100.00;99263.75;4818833;28;102341;-72
2023/05/20 01:31:25;;;;;;;;;20.00;18.00;;;;;10.18;100.00;99262.53;4814225;28;102168;-71
2023/05/20 01:33:56;;;;;;;;;27.25;23.75;;;;;10.15;100.00;99267.44;4815315;28;104049;-70
2023/05/20 01:36:26;;;;;;;;;27.75;22.00;;;;;10.09;100.00;99262.75;4810390;29;107322;-70
2023/05/20 01:38:55;;;;;;;;;22.25;20.00;;;;;10.05;100.00;99267.69;4809180;28;102383;-70
2023/05/20 01:41:24;;;;;;;;;18.75;16.25;;;;;10.11;100.00;99271.53;4818221;28;102799;-72
2023/05/20 01:43:54;;;;;;;;;26.00;21.25;;;;;10.09;100.00;99255.50;4821380;28;104034;-70
2023/05/20 01:46:21;;;;;;;;;17.25;14.50;;;;;10.12;100.00;99263.25;4822019;28;102002;-70
2023/05/20 01:48:48;;;;;;;;;16.50;13.00;;;;;10.20;100.00;99254.25;4818941;28;106669;-71
2023/05/20 01:51:16;;;;;;;;;14.75;12.50;;;;;10.25;100.00;99259.97;4822788;28;102658;-69
2023/05/20 01:53:43;;;;;;;;;12.75;11.75;;;;;10.25;100.00;99259.97;4825286;28;104350;-71
2023/05/20 01:56:10;;;;;;;;;11.50;11.00;;;;;10.27;100.00;99258.72;4822709;28;101967;-71
2023/05/20 01:58:37;;;;;;;;;13.00;12.00;;;;;10.21;100.00;99256.78;4821533;28;101928;-70
2023/05/20 02:01:04;;;;;;;;;13.00;11.50;;;;;10.21;100.00;99259.50;4821536;29;102511;-71
2023/05/20 02:03:31;;;;;;;;;11.75;10.25;;;;;10.25;100.00;99257.25;4820821;28;104768;-71
2023/05/20 02:05:58;;;;;;;;;8.75;8.00;;;;;10.26;100.00;99261.66;4821236;28;102030;-71
2023/05/20 02:08:25;;;;;;;;;23.50;14.00;;;;;10.22;100.00;99258.44;4822087;28;102181;-71
2023/05/20 02:10:52;;;;;;;;;14.00;13.00;;;;;10.27;100.00;99263.31;4824733;29;102297;-69
2023/05/20 02:13:19;;;;;;;;;13.50;11.00;;;;;10.26;100.00;99265.19;4820467;29;104076;-70
2023/05/20 02:15:46;;;;;;;;;10.75;10.75;;;;;10.24;100.00;99261.81;4822290;28;102364;-70
2023/05/20 02:18:17;;;;;;;;;14.25;13.00;;;;;10.25;100.00;99262.66;4823061;29;102481;-71
2023/05/20 02:20:44;;;;;;;;;10.50;8.50;;;;;10.32;100.00;99260.88;4820363;29;102079;-69
2023/05/20 02:23:11;;;;;;;;;10.00;9.00;;;;;10.32;100.00;99258.19;4823105;29;108735;-70
2023/05/20 02:25:39;;;;;;;;;9.75;8.50;;;;;10.28;100.00;99251.47;4821849;28;102327;-70
2023/05/20 02:28:09;;;;;;;;;9.00;7.25;;;;;10.40;100.00;99260.81;4802074;29;103946;-69
2023/05/20 02:30:39;;;;;;;;;5.00;4.00;;;;;10.46;100.00;99264.66;4822196;29;102044;-71
2023/05/20 02:33:08;;;;;;;;;13.00;10.00;;;;;10.44;100.00;99256.75;4817509;29;103745;-69
2023/05/20 02:35:35;;;;;;;;;5.50;4.25;;;;;10.48;100.00;99263.47;4802400;29;102227;-70
2023/05/20 02:38:02;;;;;;;;;10.75;9.75;;;;;10.47;100.00;99269.03;4817572;28;102662;-70
2023/05/20 02:40:29;;;;;;;;;10.00;10.00;;;;;10.38;100.00;99254.75;4818209;29;102334;-70
2023/05/20 02:42:57;;;;;;;;;8.00;7.00;;;;;10.47;100.00;99261.78;4817151;28;104213;-70
2023/05/20 02:45:23;;;;;;;;;4.75;4.75;;;;;10.54;100.00;99268.09;4820325;28;101967;-70
2023/05/20 02:47:50;;;;;;;;;9.50;8.00;;;;;10.46;100.00;99276.31;4821277;29;102548;-69
2023/05/20 02:50:18;;;;;;;;;11.75;10.00;;;;;10.54;100.00;99273.50;4820661;28;102207;-69
2023/05/20 02:52:46;;;;;;;;;6.75;6.00;;;;;10.58;100.00;99269.41;4824813;28;104308;-71
2023/05/20 02:55:13;;;;;;;;;7.75;7.75;;;;;10.56;100.00;99274.19;4818951;28;102125;-71
2023/05/20 02:57:40;;;;;;;;;16.25;12.00;;;;;10.43;100.00;99278.53;4820840;28;107749;-71
2023/05/20 03:00:12;;;;;;;;;14.00;12.00;;;;;10.44;100.00;99278.38;4821030;28;102304;-71
2023/05/20 03:02:39;;;;;;;;;12.00;9.25;;;;;10.48;100.00;99276.97;4820385;29;107967;-71
2023/05/20 03:05:06;;;;;;;;;10.00;9.50;;;;;10.44;100.00;99270.25;4819265;28;103495;-72
2023/05/20 03:07:35;;;;;;;;;4.50;4.00;;;;;10.58;100.00;99277.53;4815651;29;102090;-71
2023/05/20 03:10:03;;;;;;;;;10.50;8.25;;;;;10.55;100.00;99271.66;4820718;28;102221;-72
2023/05/20 03:12:30;;;;;;;;;11.25;10.00;;;;;10.53;100.00;99271.00;4818852;29;104028;-72
2023/05/20 03:14:59;;;;;;;;;9.00;8.25;;;;;10.53;100.00;99282.69;4819148;29;102137;-72
2023/05/20 03:17:26;;;;;;;;;8.75;7.75;;;;;10.58;100.00;99268.59;4824631;28;102236;-69
2023/05/20 03:19:53;;;;;;;;;8.50;5.50;;;;;10.63;100.00;99272.41;4823077;28;101997;-71
2023/05/20 03:22:20;;;;;;;;;11.00;8.75;;;;;10.60;100.00;99271.94;4819910;29;103707;-72
2023/05/20 03:24:47;;;;;;;;;9.00;8.00;;;;;10.61;100.00;99279.03;4818724;28;102288;-70
2023/05/20 03:27:14;;;;;;;;;9.75;9.50;;;;;10.64;100.00;99278.66;4821967;28;102705;-71
2023/05/20 03:29:41;;;;;;;;;5.00;5.00;;;;;10.70;100.00;99269.81;4820845;29;102088;-71
2023/05/20 03:32:08;;;;;;;;;7.00;6.75;;;;;10.68;100.00;99279.97;4820879;28;104050;-70
2023/05/20 03:34:37;;;;;;;;;7.00;5.00;;;;;10.78;100.00;99279.69;4821661;28;102175;-70
2023/05/20 03:37:04;;;;;;;;;5.50;4.00;;;;;10.79;100.00;99273.28;4819314;28;102430;-71
2023/05/20 03:39:31;;;;;;;;;4.50;4.00;;;;;10.79;100.00;99281.38;4822147;29;102548;-71
2023/05/20 03:41:58;;;;;;;;;9.75;8.25;;;;;10.67;100.00;99279.13;4820048;28;103956;-70
2023/05/20 03:44:25;;;;;;;;;12.25;11.00;;;;;10.68;100.00;99275.41;4821740;29;102589;-71
2023/05/20 03:46:52;;;;;;;;;14.00;11.50;;;;;10.73;100.00;99283.81;4821305;28;102065;-70
2023/05/20 03:49:19;;;;;;;;;7.00;6.25;;;;;10.82;100.00;99275.59;4819812;29;102052;-70
2023/05/20 03:51:46;;;;;;;;;13.25;12.25;;;;;10.71;100.00;99272.34;4820835;28;104045;-70
2023/05/20 03:54:15;;;;;;;;;10.75;9.00;;;;;10.80;100.00;99274.94;4820300;29;103048;-71
2023/05/20 03:56:42;;;;;;;;;7.75;6.25;;;;;10.92;100.00;99268.03;4823665;28;101950;-70
2023/05/20 03:59:09;;;;;;;;;10.50;9.25;;;;;10.87;100.00;99281.28;4821762;29;102417;-71
2023/05/20 04:01:36;;;;;;;;;9.50;7.75;;;;;10.86;100.00;99277.75;4821805;29;103979;-70
2023/05/20 04:04:03;;;;;;;;;7.25;5.75;;;;;10.96;100.00;99262.06;4819953;28;101918;-70
2023/05/20 04:06:31;;;;;;;;;9.00;6.25;;;;;11.01;100.00;99275.88;4821482;29;102561;-70
2023/05/20 04:08:58;;;;;;;;;6.50;6.00;;;;;11.06;100.00;99270.75;4821637;29;101994;-70
2023/05/20 04:11:25;;;;;;;;;9.50;8.25;;;;;11.06;100.00;99283.44;4820252;28;104028;-70
2023/05/20 04:13:53;;;;;;;;;8.00;8.00;;;;;11.05;100.00;99271.78;4817894;28;102137;-70
2023/05/20 04:16:20;;;;;;;;;8.75;7.25;;;;;11.06;100.00;99278.88;4820767;29;103186;-70
2023/05/20 04:18:47;;;;;;;;;6.75;6.00;;;;;11.11;100.00;99283.72;4820870;28;102063;-70
2023/05/20 04:21:14;;;;;;;;;12.25;10.00;;;;;11.10;100.00;99282.03;4821500;28;104189;-71
2023/05/20 04:23:41;;;;;;;;;10.00;7.25;;;;;11.11;100.00;99281.00;4818199;28;103254;-71
2023/05/20 04:26:08;;;;;;;;;12.00;8.00;;;;;11.18;100.00;99280.06;4819140;29;102029;-71
2023/05/20 04:28:36;;;;;;;;;8.00;7.00;;;;;11.18;100.00;99281.94;4820139;28;102405;-71
2023/05/20 04:31:03;;;;;;;;;8.75;8.00;;;;;11.26;100.00;99278.31;4815416;28;104517;-71
2023/05/20 04:36:37;;;;;;;;;9.25;9.00;;;;;11.27;100.00;99285.38;4816532;28;101972;-71
2023/05/20 04:39:04;;;;;;;;;7.75;6.00;;;;;11.40;100.00;99286.38;4819379;29;102184;-72
2023/05/20 04:41:31;;;;;;;;;5.00;5.00;;;;;11.48;100.00;99278.13;4820357;29;104051;-71
2023/05/20 04:43:59;;;;;;;;;2.75;2.75;;;;;11.53;100.00;99267.56;4820597;29;102168;-71
2023/05/20 04:46:26;;;;;;;;;6.00;4.25;;;;;11.56;100.00;99278.03;4822254;29;102281;-70
2023/05/20 04:48:53;;;;;;;;;6.25;6.25;;;;;11.57;100.00;99279.69;4818217;28;102248;-70
2023/05/20 04:51:20;;;;;;;;;5.00;4.00;;;;;11.65;100.00;99267.94;4818152;29;104391;-71
2023/05/20 04:53:49;;;;;;;;;5.25;5.25;;;;;11.66;100.00;99285.03;4812821;29;101927;-71
2023/05/20 04:56:16;;;;;;;;;4.50;4.00;;;;;11.76;100.00;99269.31;4819550;29;102107;-71
2023/05/20 04:58:43;;;;;;;;;5.00;4.00;;;;;11.80;100.00;99279.56;4818046;28;102430;-71
2023/05/20 05:01:10;;;;;;;;;7.75;6.50;;;;;11.81;100.00;99289.38;4819229;28;103918;-71
2023/05/20 05:03:37;;;;;;;;;5.25;4.50;;;;;11.87;100.00;99282.38;4816121;29;102058;-70
2023/05/20 05:06:04;;;;;;;;;4.25;3.00;;;;;11.94;100.00;99281.41;4815972;28;102012;-71
2023/05/20 05:08:31;;;;;;;;;6.00;5.25;;;;;12.00;100.00;99282.50;4818144;29;107760;-71
2023/05/20 05:10:58;;;;;;;;;4.75;3.00;;;;;11.99;100.00;99288.94;4819623;29;104205;-70
2023/05/20 05:13:25;;;;;;;;;7.00;6.50;;;;;12.01;100.00;99281.47;4802090;29;102408;-70
2023/05/20 05:15:59;;;;;;;;;10.25;7.75;;;;;12.03;100.00;99285.66;4819587;29;102170;-70
2023/05/20 05:18:26;;;;;;;;;10.50;7.00;;;;;12.10;100.00;99283.03;4819297;29;102438;-70
2023/05/20 05:21:03;;;;;;;;;12.25;10.25;;;;;12.18;100.00;99276.63;4818908;29;104891;-71
2023/05/20 05:23:31;;;;;;;;;7.25;6.75;;;;;12.20;100.00;99282.69;4818106;29;103018;-71
2023/05/20 05:25:58;;;;;;;;;9.75;7.75;;;;;12.08;100.00;99268.81;4817774;29;101989;-71
2023/05/20 05:28:25;;;;;;;;;8.00;7.75;;;;;12.12;100.00;99280.94;4819677;28;102332;-70
2023/05/20 05:30:56;;;;;;;;;13.00;11.00;;;;;12.17;100.00;99278.50;4822313;29;104024;-69
2023/05/20 05:33:23;;;;;;;;;14.50;10.50;;;;;12.17;100.00;99283.06;4817279;29;103561;-69
2023/05/20 05:35:50;;;;;;;;;10.00;8.50;;;;;12.27;100.00;99279.00;4822058;29;102385;-71
2023/05/20 05:38:17;;;;;;;;;10.00;10.00;;;;;12.28;100.00;99275.25;4819497;29;102157;-71
2023/05/20 05:40:44;;;;;;;;;8.50;8.50;;;;;12.36;100.00;99280.53;4815812;28;104037;-71
2023/05/20 05:43:11;;;;;;;;;14.25;12.25;;;;;12.47;100.00;99285.41;4819770;28;102438;-71
2023/05/20 05:45:38;;;;;;;;;7.75;7.75;;;;;12.66;100.00;99275.75;4819039;29;102204;-71
2023/05/20 05:48:05;;;;;;;;;8.00;8.00;;;;;12.75;100.00;99285.41;4820556;28;102063;-71
2023/05/20 05:50:32;;;;;;;;;13.25;13.00;;;;;12.80;100.00;99279.41;4817492;29;104193;-70
2023/05/20 05:52:59;;;;;;;;;12.50;11.00;;;;;12.75;100.00;99276.44;4818857;28;102301;-71
2023/05/20 05:55:26;;;;;;;;;7.00;7.00;;;;;12.90;100.00;99264.44;4817736;29;102472;-71
2023/05/20 05:57:53;;;;;;;;;9.50;7.00;;;;;13.02;100.00;99259.28;4819172;28;102276;-71
2023/05/20 06:00:20;;;;;;;;;11.75;9.75;;;;;13.02;99.28;99262.00;4818685;28;104028;-71
2023/05/20 06:02:48;;;;;;;;;10.75;10.00;;;;;13.08;100.00;99266.63;4818381;29;102020;-71
2023/05/20 06:05:15;;;;;;;;;7.50;7.50;;;;;12.97;98.51;99264.47;4817705;29;102181;-71
2023/05/20 06:07:42;;;;;;;;;10.50;9.75;;;;;12.90;100.00;99258.19;4822942;29;102470;-71
2023/05/20 06:10:09;;;;;;;;;8.25;8.00;;;;;13.07;100.00;99266.81;4818952;29;104175;-71
2023/05/20 06:12:36;;;;;;;;;8.75;8.25;;;;;13.12;98.09;99257.06;4815478;29;102028;-71
2023/05/20 06:15:04;;;;;;;;;11.50;10.50;;;;;13.11;99.62;99255.41;4822828;28;102770;-71
2023/05/20 06:17:31;;;;;;;;;16.00;13.75;;;;;13.11;98.72;99255.41;4823541;29;102240;-71
2023/05/20 06:19:58;;;;;;;;;7.50;6.00;;;;;13.20;98.32;99251.47;4819889;28;104087;-71
2023/05/20 06:22:25;;;;;;;;;12.50;9.75;;;;;13.20;99.54;99253.34;4823633;29;102063;-71
2023/05/20 06:24:55;;;;;;;;;9.50;9.25;;;;;13.35;99.43;99254.03;4822447;28;102122;-70
2023/05/20 06:27:22;;;;;;;;;11.00;10.75;;;;;13.43;99.36;99253.88;4820939;28;102624;-69
2023/05/20 06:29:49;;;;;;;;;15.00;14.00;;;;;13.46;98.30;99249.91;4822038;28;110864;-71
2023/05/20 06:32:16;;;;;;;;;13.75;12.25;;;;;13.56;98.01;99253.06;4821917;29;102255;-71
2023/05/20 06:34:44;;;;;;;;;8.75;8.50;;;;;13.66;97.51;99254.38;4819337;29;102020;-71
2023/05/20 06:37:11;;;;;;;;;14.50;11.25;;;;;13.58;97.39;99240.97;4821625;28;102302;-71
2023/05/20 06:39:39;;;;;;;;;9.25;9.25;;;;;13.77;98.12;99261.94;4818062;28;103988;-71
2023/05/20 06:42:06;;;;;;;;;17.00;14.00;;;;;13.63;97.99;99253.94;4817914;28;102289;-71
2023/05/20 06:44:33;;;;;;;;;12.00;10.75;;;;;13.73;97.59;99257.13;4822521;29;102791;-71
2023/05/20 06:47:00;;;;;;;;;14.50;13.00;;;;;13.76;96.96;99257.53;4817246;28;102738;-71
2023/05/20 06:49:27;;;;;;;;;14.75;13.00;;;;;13.80;98.08;99260.66;4822543;29;107906;-71
2023/05/20 06:51:54;;;;;;;;;11.00;9.75;;;;;13.95;96.36;99250.47;4818979;29;102672;-70
2023/05/20 06:54:21;;;;;;;;;14.00;11.25;;;;;13.87;97.05;99245.19;4822634;28;102147;-71
2023/05/20 06:56:48;;;;;;;;;19.75;17.75;;;;;13.76;97.99;99249.38;4819638;28;102438;-71
2023/05/20 06:59:15;;;;;;;;;16.00;15.00;;;;;13.88;97.20;99249.59;4819185;29;104306;-71
2023/05/20 07:01:42;;;;;;;;;12.75;10.50;;;;;14.03;97.21;99250.25;4820297;28;102285;-71
2023/05/20 07:04:09;;;;;;;;;12.50;12.50;;;;;13.94;96.95;99251.50;4813038;29;102529;-70
2023/05/20 07:06:36;;;;;;;;;12.00;11.50;;;;;14.09;97.22;99243.16;4819251;29;102068;-71
2023/05/20 07:09:04;;;;;;;;;18.00;15.00;;;;;14.13;96.66;99250.69;4818794;28;104041;-71
2023/05/20 07:11:31;;;;;;;;;13.25;12.75;;;;;14.17;98.38;99245.66;4816427;29;102422;-71
2023/05/20 07:13:58;;;;;;;;;9.75;9.50;;;;;14.40;96.77;99246.13;4812288;28;102120;-71
2023/05/20 07:16:25;;;;;;;;;12.75;11.25;;;;;14.54;96.27;99236.06;4819062;29;102144;-71
2023/05/20 07:18:52;;;;;;;;;8.75;7.75;;;;;14.77;94.96;99233.72;4817205;29;110075;-71
2023/05/20 07:21:19;;;;;;;;;18.00;15.25;;;;;14.63;94.50;99234.81;4819511;28;102394;-71
2023/05/20 07:23:46;;;;;;;;;19.00;17.25;;;;;14.82;96.24;99216.75;4821541;29;102581;-71
2023/05/20 07:26:13;;;;;;;;;11.25;10.00;;;;;15.10;94.85;99225.47;4819200;29;102400;-70
2023/05/20 07:28:40;;;;;;;;;19.75;15.50;;;;;15.02;94.62;99220.25;4816547;29;104276;-71
2023/05/20 07:31:07;;;;;;;;;15.50;15.00;;;;;15.08;94.99;99224.88;4812349;28;104556;-71
2023/05/20 07:33:34;;;;;;;;;19.00;13.50;;;;;15.24;95.14;99224.38;4820314;29;102869;-71
2023/05/20 07:36:01;;;;;;;;;11.50;10.00;;;;;15.46;93.79;99206.66;4818519;28;102794;-71
2023/05/20 07:38:28;;;;;;;;;7.75;7.50;;;;;15.67;92.27;99208.25;4815955;29;104082;-71
2023/05/20 07:40:55;;;;;;;;;10.75;9.25;;;;;15.70;90.83;99210.56;4822075;29;102275;-71
2023/05/20 07:43:22;;;;;;;;;14.25;12.25;;;;;15.70;92.44;99218.72;4818671;28;102295;-72
2023/05/20 07:45:49;;;;;;;;;13.00;12.00;;;;;15.74;90.59;99219.13;4822641;29;104181;-71
2023/05/20 07:48:16;;;;;;;;;14.00;13.00;;;;;15.74;90.45;99228.13;4812272;28;104124;-71
2023/05/20 07:50:43;;;;;;;;;12.25;10.75;;;;;15.69;89.31;99229.84;4819485;28;102695;-71
2023/05/20 07:53:10;;;;;;;;;10.75;10.75;;;;;15.76;90.49;99233.38;4818306;28;102481;-70
2023/05/20 07:55:38;;;;;;;;;13.25;13.00;;;;;15.69;90.07;99230.69;4818134;29;102350;-70
2023/05/20 07:58:05;;;;;;;;;19.25;17.50;;;;;15.68;90.70;99217.25;4813872;28;104173;-71
2023/05/20 08:00:32;;;;;;;;;11.75;11.50;;;;;16.00;90.84;99225.22;4820589;29;102808;-71
2023/05/20 08:02:59;;;;;;;;;11.25;11.00;;;;;16.07;89.46;99226.00;4821106;28;102165;-70
2023/05/20 08:05:26;;;;;;;;;9.25;9.00;;;;;16.28;89.20;99233.00;4820601;29;102328;-71
2023/05/20 08:07:53;;;;;;;;;12.75;11.50;;;;;16.43;88.34;99224.50;4811800;29;104170;-70
2023/05/20 08:10:20;;;;;;;;;13.50;11.75;;;;;16.42;87.21;99225.53;4804655;29;102219;-70
2023/05/20 08:12:47;;;;;;;;;6.75;6.25;;;;;16.44;87.55;99218.78;4803504;28;108223;-70
2023/05/20 08:15:14;;;;;;;;;22.00;18.75;;;;;16.19;88.50;99222.59;4819043;28;102284;-71
2023/05/20 08:17:41;;;;;;;;;17.25;16.50;;;;;16.08;89.16;99213.22;4819775;29;103815;-72
2023/05/20 08:20:09;;;;;;;;;19.75;18.50;;;;;16.00;89.06;99211.59;4819687;29;102179;-69
2023/05/20 08:22:36;;;;;;;;;21.50;21.00;;;;;15.85;90.47;99208.34;4817777;29;102235;-70
2023/05/20 08:25:06;;;;;;;;;16.00;15.75;;;;;16.19;91.04;99208.94;4815556;28;103969;-70
2023/05/20 08:27:35;;;;;;;;;14.00;13.00;;;;;16.38;88.47;99186.09;4818558;28;104619;-70
2023/05/20 08:30:03;;;;;;;;;13.75;11.75;;;;;16.51;90.85;99202.38;4803684;29;102597;-70
2023/05/20 08:32:30;;;;;;;;;15.50;13.75;;;;;16.56;88.27;99202.53;4823767;29;102394;-70
2023/05/20 08:35:00;;;;;;;;;13.50;12.50;;;;;16.64;88.90;99190.50;4822191;29;102223;-71
2023/05/20 08:37:28;;;;;;;;;14.25;11.75;;;;;16.74;86.68;99196.28;4815892;29;108145;-70
2023/05/20 08:39:55;;;;;;;;;13.00;12.00;;;;;16.77;86.77;99195.81;4818372;28;102068;-70
2023/05/20 08:42:23;;;;;;;;;13.25;12.75;;;;;16.69;86.14;99196.13;4483102;28;10000154;-70
2023/05/20 08:44:54;;;;;;;;;13.50;11.25;;;;;16.88;87.16;99195.94;4816745;28;102485;-71
2023/05/20 08:47:21;;;;;;;;;23.50;20.75;;;;;16.73;87.54;99189.97;4818962;28;102116;-71
2023/05/20 08:49:48;;;;;;;;;18.00;17.00;;;;;16.93;87.18;99198.78;4820786;28;104134;-72
2023/05/20 08:52:20;;;;;;;;;23.25;20.25;;;;;16.93;86.64;99195.25;4820233;29;102001;-71
2023/05/20 08:54:48;;;;;;;;;14.75;13.00;;;;;17.06;85.24;99189.63;4819539;28;102273;-70
2023/05/20 08:57:15;;;;;;;;;12.25;12.00;;;;;17.00;85.63;99195.16;4820689;29;102395;-70
2023/05/20 08:59:44;;;;;;;;;15.00;14.33;;;;;16.94;86.13;99195.00;4819811;29;104046;-70
2023/05/20 09:02:11;;;;;;;;;17.00;15.25;;;;;16.83;86.70;99190.31;4822493;28;102210;-71
2023/05/20 09:04:39;;;;;;;;;20.75;20.00;;;;;16.54;87.71;99204.63;4823818;29;102223;-70
2023/05/20 09:07:06;;;;;;;;;20.25;20.25;;;;;16.44;89.11;99198.84;4819748;29;102683;-70
2023/05/20 09:09:34;;;;;;;;;18.25;16.75;;;;;16.52;88.73;99193.13;4818365;29;104054;-69
2023/05/20 09:12:02;;;;;;;;;20.50;19.00;;;;;16.50;89.71;99195.22;4823218;29;102127;-70
2023/05/20 09:14:30;;;;;;;;;19.00;17.25;;;;;16.62;88.30;99198.91;4818189;28;101958;-71
2023/05/20 09:16:58;;;;;;;;;18.75;16.50;;;;;16.69;89.12;99202.44;4822353;29;103060;-72
2023/05/20 09:19:25;;;;;;;;;18.25;17.25;;;;;16.60;88.58;99205.66;4821077;28;104207;-71
2023/05/20 09:21:53;;;;;;;;;19.25;17.50;;;;;16.65;88.45;99203.94;4821232;29;101911;-71
2023/05/20 09:24:25;;;;;;;;;13.75;13.00;;;;;17.01;88.04;99203.13;4820628;28;102161;-70
2023/05/20 09:26:52;;;;;;;;;21.25;20.00;;;;;16.61;87.94;99215.53;4821653;28;102203;-70
2023/05/20 09:29:20;;;;;;;;;19.75;18.00;;;;;16.69;87.75;99215.25;4823542;29;104300;-70
2023/05/20 09:31:48;;;;;;;;;23.50;21.50;;;;;16.88;86.95;99208.75;4802875;29;102102;-70
2023/05/20 09:34:16;;;;;;;;;15.33;15.00;;;;;17.38;86.49;99198.47;4804830;29;102366;-70
2023/05/20 09:36:44;;;;;;;;;17.50;15.50;;;;;17.61;85.31;99201.31;4803872;29;102450;-70
2023/05/20 09:39:16;;;;;;;;;19.25;16.50;;;;;17.61;84.89;99200.47;4804544;29;104007;-70
2023/05/20 09:42:01;;;;;;;;;16.00;15.00;;;;;17.96;84.08;99198.72;4801344;29;106347;-70
2023/05/20 09:44:31;;;;;;;;;12.75;12.25;;;;;18.08;82.12;99193.25;4803712;29;102099;-70
2023/05/20 09:46:59;;;;;;;;;16.00;15.00;;;;;18.12;82.94;99194.47;4805310;29;101959;-71
2023/05/20 09:49:29;;;;;;;;;22.00;20.25;;;;;17.75;83.84;99200.06;4804814;29;104035;-71
2023/05/20 09:51:59;;;;;;;;;17.50;17.25;;;;;17.80;83.44;99196.63;4802602;28;102452;-71
2023/05/20 09:54:27;;;;;;;;;18.50;17.00;;;;;17.79;84.17;99192.22;4804448;29;101914;-71
2023/05/20 09:56:56;;;;;;;;;20.25;19.00;;;;;17.81;83.14;99195.56;4807371;29;102339;-71
2023/05/20 09:59:23;;;;;;;;;20.00;18.25;;;;;17.66;82.62;99195.16;4803540;29;104056;-71
2023/05/20 10:01:50;;;;;;;;;24.25;22.25;;;;;17.65;82.87;99191.59;4803275;29;102409;-71
2023/05/20 10:04:19;;;;;;;;;18.50;18.00;;;;;17.84;82.01;99187.72;4805351;29;102283;-70
2023/05/20 10:07:11;;;;;;;;;21.25;19.25;;;;;17.67;82.86;99197.66;4803778;29;102456;-70
2023/05/20 10:09:53;;;;;;;;;24.75;23.25;;;;;17.44;83.34;99202.16;4801652;28;109349;-70
2023/05/20 10:12:34;;;;;;;;;17.67;17.33;;;;;17.77;84.84;99208.91;4805698;29;101771;-70
2023/05/20 10:15:26;;;;;;;;;16.00;16.00;;;;;17.68;82.78;99196.63;4803948;29;102212;-72
2023/05/20 10:18:01;;;;;;;;;19.67;18.00;;;;;17.64;82.57;99194.56;4807288;29;102067;-71
2023/05/20 10:20:29;;;;;;;;;21.50;20.00;;;;;17.78;83.23;99187.84;4805084;28;108757;-70
2023/05/20 10:22:57;;;;;;;;;20.50;18.00;;;;;17.75;84.52;99200.06;4804133;28;102004;-70
2023/05/20 10:25:26;;;;;;;;;24.00;23.00;;;;;17.51;85.00;99197.47;4805044;28;102069;-69
2023/05/20 10:28:06;;;;;;;;;21.25;19.25;;;;;17.82;84.21;99195.34;4803375;29;102537;-70
2023/05/20 10:30:34;;;;;;;;;25.00;24.00;;;;;17.90;85.53;99196.91;4811417;29;109722;-69
2023/05/20 10:33:04;;;;;;;;;26.25;22.25;;;;;17.85;83.17;99196.78;4822600;29;102171;-70
2023/05/20 10:35:31;;;;;;;;;27.50;24.00;;;;;17.90;82.25;99185.13;4823366;29;102043;-70
2023/05/20 10:38:10;;;;;;;;;26.75;24.00;;;;;17.93;83.01;99181.91;4829084;28;101949;-71
2023/05/20 10:40:38;;;;;;;;;26.00;23.50;;;;;17.90;81.51;99179.66;4821128;29;108908;-69
2023/05/20 10:43:27;;;;;;;;;23.25;22.50;;;;;18.25;83.05;99188.78;4821492;28;103050;-69
2023/05/20 10:45:56;;;;;;;;;16.00;15.25;;;;;18.59;82.94;99187.16;4820275;29;102054;-71
2023/05/20 10:48:26;;;;;;;;;20.50;18.25;;;;;18.67;81.00;99171.22;4820065;28;102253;-71
2023/05/20 10:50:58;;;;;;;;;23.25;21.75;;;;;18.72;82.05;99165.00;4819477;29;104010;-71
2023/05/20 10:53:26;;;;;;;;;23.75;21.50;;;;;18.70;80.00;99173.47;4822458;28;102025;-71
2023/05/20 10:56:00;;;;;;;;;31.50;28.50;;;;;18.48;80.19;99150.44;4823796;28;102063;-71
2023/05/20 10:58:27;;;;;;;;;28.00;27.00;;;;;18.58;82.71;99178.13;4825063;29;102060;-71
2023/05/20 11:00:55;;;;;;;;;28.50;27.00;;;;;18.50;81.73;99174.88;4823063;29;104356;-71
2023/05/20 11:03:23;;;;;;;;;29.00;26.25;;;;;18.34;80.84;99181.88;4820861;28;102074;-72
2023/05/20 11:05:51;;;;;;;;;29.25;28.75;;;;;18.31;80.24;99171.41;4820691;28;102054;-71
2023/05/20 11:08:18;;;;;;;;;25.50;22.25;;;;;18.66;81.29;99169.53;4819677;29;102027;-71
2023/05/20 11:10:55;;;;;;;;;32.00;29.75;;;;;18.24;82.85;99165.19;4820340;28;104321;-70
2023/05/20 11:13:24;;;;;;;;;37.00;30.00;;;;;18.25;83.46;99161.41;4823602;29;102104;-71
2023/05/20 11:15:51;;;;;;;;;28.75;25.00;;;;;18.56;81.69;99152.03;4821940;28;102330;-71
2023/05/20 11:18:18;;;;;;;;;25.75;23.75;;;;;18.81;81.71;99149.88;4822910;29;102407;-70
2023/05/20 11:20:46;;;;;;;;;27.00;24.50;;;;;18.78;81.81;99144.03;4824123;28;104194;-70